Latest Weather Observations for Forrest

IDW60801

Issued at 8:43 am WST Monday 26 August 2019 (issued every 10 minutes, with the page automatically refreshed every 10 minutes)

About weather observations | Map of weather stations | Latest weather observations for WA | Other Formats
Station Details ID: 011052 Name: FORREST Lat: -30.85 Lon: 128.11 Height: 159.0 m
Data from the previous 72 hours. | See also: Recent months at Forrest
Date/Time
WST
Temp
°C
App
Temp
°C
Dew
Point
°C
Rel
Hum
%
Delta-T
°C
Wind Press
QNH
hPa
Press
MSL
hPa
Rain since
9am
mm
Dir  Spd
km/h
Gust
km/h
Spd
kts
Gust
kts
26/08:30am 12.4 5.5 2.6 51 4.3 ENE 28 35 15 19 1029.4 1029.4 0.0
26/08:00am 11.1 5.0 2.7 56 3.6 E 24 30 13 16 1029.5 1029.5 0.0
26/07:30am 9.6 4.9 3.4 65 2.7 ENE 17 20 9 11 1029.6 1029.6 0.0
26/07:00am 6.6 2.5 2.5 75 1.7 E 13 15 7 8 1029.1 1029.1 0.0
26/06:30am 4.4 -0.2 1.6 82 1.1 ESE 15 19 8 10 1028.5 1028.5 0.0
26/06:00am 3.6 -1.4 1.3 85 0.9 ESE 17 22 9 12 1028.2 1028.2 0.0
26/05:30am 2.9 -1.8 0.8 86 0.8 ESE 15 17 8 9 1028.1 1028.1 0.0
26/05:00am 3.2 -1.1 0.9 85 0.9 ESE 13 19 7 10 1027.9 1027.9 0.0
26/04:30am 3.3 -1.0 1.0 85 0.9 ESE 13 15 7 8 1027.7 1027.7 0.0
26/04:00am 3.6 -0.7 1.3 85 0.9 ESE 13 15 7 8 1027.5 1027.5 0.0
26/03:30am 4.3 0.1 1.7 83 1.0 ESE 13 17 7 9 1027.2 1027.2 0.0
26/03:00am 4.8 -0.1 1.8 81 1.2 ESE 17 19 9 10 1027.1 1027.1 0.0
26/02:30am 5.3 0.4 2.1 80 1.3 ESE 17 20 9 11 1027.0 1027.0 0.0
26/02:00am 4.9 0.0 1.9 81 1.2 ESE 17 20 9 11 1027.0 1027.0 0.0
26/01:30am 4.9 0.0 1.7 80 1.3 ESE 17 19 9 10 1027.4 1027.4 0.0
26/01:00am 5.4 0.9 2.1 79 1.3 ESE 15 17 8 9 1027.8 1027.8 0.0
26/12:30am 5.9 1.4 2.4 78 1.4 ESE 15 17 8 9 1028.0 1028.0 0.0
26/12:00am 6.4 2.3 2.5 76 1.6 ESE 13 17 7 9 1028.2 1028.2 0.0
 
Date/Time
WST
Temp
°C
App
Temp
°C
Dew
Point
°C
Rel
Hum
%
Delta-T
°C
Wind Press
QNH
hPa
Press
MSL
hPa
Rain since
9am
mm
Dir  Spd
km/h
Gust
km/h
Spd
kts
Gust
kts
25/11:30pm 7.3 3.0 3.0 74 1.8 ESE 15 17 8 9 1028.4 1028.4 0.0
25/11:00pm 7.9 3.9 3.0 71 2.1 ESE 13 15 7 8 1028.4 1028.4 0.0
25/10:30pm 9.0 4.4 3.6 69 2.4 ESE 17 22 9 12 1028.4 1028.4 0.0
25/10:00pm 10.0 4.1 4.0 66 2.6 E 24 32 13 17 1028.5 1028.5 0.0
25/09:30pm 10.3 4.0 4.0 65 2.8 E 26 33 14 18 1028.6 1028.6 0.0
25/09:00pm 10.6 4.7 3.9 63 3.0 ESE 24 32 13 17 1028.8 1028.8 0.0
25/08:30pm 10.7 4.8 4.0 63 3.0 ESE 24 32 13 17 1028.4 1028.4 0.0
25/08:00pm 10.9 4.3 4.1 63 3.0 ESE 28 33 15 18 1028.1 1028.1 0.0
25/07:30pm 11.1 4.8 3.6 60 3.3 SE 26 32 14 17 1027.9 1027.9 0.0
25/07:00pm 10.9 5.2 3.0 58 3.4 SE 22 28 12 15 1027.6 1027.6 0.0
25/06:30pm 11.6 6.3 2.9 55 3.8 SE 20 32 11 17 1027.2 1027.2 0.0
25/06:00pm 12.7 6.5 2.0 48 4.6 SSE 24 35 13 19 1026.6 1026.6 0.0
25/05:30pm 13.8 8.4 1.5 43 5.4 SE 19 30 10 16 1026.2 1026.2 0.0
25/05:00pm 14.0 10.0 0.6 40 5.7 E 11 15 6 8 1025.9 1025.9 0.0
25/04:30pm 14.7 9.6 0.9 39 6.0 E 17 26 9 14 1025.7 1025.7 0.0
25/04:00pm 14.8 9.2 1.0 39 6.0 ESE 20 32 11 17 1025.3 1025.3 0.0
25/03:30pm 14.9 9.3 1.4 40 5.9 ESE 20 30 11 16 1025.4 1025.4 0.0
25/03:00pm 15.3 9.2 2.5 42 5.7 ESE 24 32 13 17 1025.3 1025.3 0.0
25/02:30pm 15.3 9.9 2.5 42 5.8 E 20 30 11 16 1025.5 1025.5 0.0
25/02:00pm 15.4 10.6 2.6 42 5.8 ESE 17 26 9 14 1025.6 1025.6 0.0
25/01:30pm 14.8 9.7 3.9 48 5.0 ESE 20 28 11 15 1025.9 1025.9 0.0
25/01:00pm 14.6 9.7 4.3 50 4.8 ESE 19 32 10 17 1026.2 1026.2 0.0
25/12:30pm 14.3 9.5 4.9 53 4.4 SE 19 28 10 15 1026.6 1026.6 0.0
25/12:00pm 14.3 9.2 4.3 51 4.6 ESE 20 30 11 16 1027.0 1027.0 0.0
25/11:30am 14.4 9.6 4.4 51 4.7 ESE 19 30 10 16 1027.5 1027.5 0.0
25/11:00am 15.1 10.0 4.2 48 5.0 ESE 20 32 11 17 1028.0 1028.0 0.0
25/10:30am 13.0 8.2 4.4 56 4.0 E 19 26 10 14 1028.3 1028.3 0.0
25/10:00am 12.6 7.8 5.8 63 3.2 E 20 30 11 16 1028.4 1028.4 0.0
25/09:30am 12.2 7.7 6.3 67 2.8 E 19 28 10 15 1028.8 1028.8 0.0
25/09:00am 12.3 8.2 6.4 67 2.8 ENE 17 26 9 14 1029.1 1029.1 0.0
25/08:30am 11.8 8.0 7.5 75 2.1 E 17 24 9 13 1029.2 1029.2 0.0
25/08:00am 10.3 7.1 7.0 80 1.6 ESE 13 17 7 9 1029.0 1029.0 0.0
25/07:30am 8.2 5.9 7.3 94 0.4 S 9 13 5 7 1028.7 1028.7 0.0
25/07:00am 5.3 2.8 5.0 98 0.1 SSW 7 9 4 5 1028.4 1028.4 0.0
25/06:45am 4.0 1.3 3.6 97 0.2 SSW 7 9 4 5 1028.3 1028.3 0.0
25/06:43am 4.0 0.9 3.6 97 0.2 SSW 9 9 5 5 1028.3 1028.3 0.0
25/06:30am 3.4 -0.6 3.0 97 0.2 SSW 13 15 7 8 1028.2 1028.2 0.0
25/06:24am 3.2 -0.8 2.8 97 0.2 SSW 13 15 7 8 1028.2 1028.2 0.0
25/06:14am 2.9 -1.2 2.5 97 0.2 SSW 13 17 7 9 1028.0 1028.0 0.0
25/06:00am 3.2 -0.4 2.8 97 0.2 SSW 11 13 6 7 1028.0 1028.0 0.0
25/05:54am 3.0 -0.7 2.6 97 0.2 SSW 11 13 6 7 1027.9 1027.9 0.0
25/05:51am 3.0 -1.0 2.6 97 0.2 SSW 13 15 7 8 1027.8 1027.8 0.0
25/05:32am 2.8 -1.3 2.2 96 0.2 SSW 13 15 7 8 1027.8 1027.8 0.0
25/05:30am 2.9 -1.2 2.3 96 0.2 SSW 13 15 7 8 1027.8 1027.8 0.0
25/05:19am 2.7 -1.4 2.1 96 0.2 SSW 13 17 7 9 1027.8 1027.8 0.0
25/05:00am 2.6 -1.5 2.0 96 0.2 SSW 13 15 7 8 1027.6 1027.6 0.0
25/04:30am 3.0 -1.1 2.4 96 0.2 S 13 15 7 8 1027.2 1027.2 0.0
25/04:00am 3.1 -0.6 2.4 95 0.3 S 11 15 6 8 1026.9 1026.9 0.0
25/03:30am 3.5 -0.1 2.8 95 0.3 S 11 13 6 7 1026.9 1026.9 0.0
25/03:00am 3.6 -0.4 2.7 94 0.4 S 13 13 7 7 1026.7 1026.7 0.0
25/02:30am 3.8 0.5 2.6 92 0.5 S 9 11 5 6 1026.5 1026.5 0.0
25/02:00am 4.0 0.8 2.8 92 0.5 S 9 11 5 6 1026.8 1026.8 0.0
25/01:30am 4.3 1.1 3.1 92 0.5 S 9 11 5 6 1027.0 1027.0 0.0
25/01:00am 4.5 0.6 3.5 93 0.4 S 13 15 7 8 1027.2 1027.2 0.0
25/12:30am 4.6 1.1 3.3 91 0.5 S 11 15 6 8 1027.4 1027.4 0.0
25/12:00am 4.6 1.0 3.1 90 0.6 S 11 15 6 8 1027.6 1027.6 0.0
 
Date/Time
WST
Temp
°C
App
Temp
°C
Dew
Point
°C
Rel
Hum
%
Delta-T
°C
Wind Press
QNH
hPa
Press
MSL
hPa
Rain since
9am
mm
Dir  Spd
km/h
Gust
km/h
Spd
kts
Gust
kts
24/11:30pm 5.5 2.1 3.8 89 0.7 S 11 13 6 7 1027.6 1027.6 0.0
24/11:00pm 5.8 2.4 3.8 87 0.8 S 11 11 6 6 1027.6 1027.6 0.0
24/10:30pm 6.5 3.5 4.2 85 1.0 SSE 9 11 5 6 1027.7 1027.7 0.0
24/10:00pm 7.3 3.7 5.0 85 1.0 S 13 15 7 8 1027.5 1027.5 0.0
24/09:30pm 8.0 4.0 5.1 82 1.3 SSE 15 17 8 9 1027.5 1027.5 0.0
24/09:00pm 8.2 4.6 5.0 80 1.4 SSE 13 15 7 8 1027.4 1027.4 0.0
24/08:30pm 9.2 5.3 5.4 77 1.7 SSE 15 19 8 10 1027.3 1027.3 0.0
24/08:00pm 10.0 5.4 5.6 74 2.0 SSE 19 26 10 14 1027.0 1027.0 0.0
24/07:30pm 10.8 5.7 6.0 72 2.2 SSE 22 30 12 16 1026.7 1026.7 0.0
24/07:00pm 11.5 5.8 4.7 63 3.1 SSE 24 32 13 17 1026.3 1026.3 0.0
24/06:30pm 12.4 6.9 2.0 49 4.5 SSE 20 30 11 16 1025.9 1025.9 0.0
24/06:00pm 13.6 8.1 1.6 44 5.2 SSE 20 28 11 15 1025.4 1025.4 0.0
24/05:30pm 14.6 8.8 2.2 43 5.5 SE 22 30 12 16 1024.8 1024.8 0.0
24/05:00pm 15.1 8.9 2.0 41 5.8 SSE 24 32 13 17 1024.3 1024.3 0.0
24/04:30pm 15.8 9.9 1.5 38 6.3 S 22 30 12 16 1024.1 1024.1 0.0
24/04:00pm 16.7 11.6 0.8 34 7.0 S 17 26 9 14 1023.6 1023.6 0.0
24/03:30pm 16.6 11.0 1.1 35 6.9 S 20 28 11 15 1023.5 1023.5 0.0
24/03:00pm 17.3 12.4 2.1 36 6.9 S 17 26 9 14 1023.4 1023.4 0.0
24/02:30pm 17.2 12.8 2.8 38 6.6 SSW 15 22 8 12 1023.3 1023.3 0.0
24/02:00pm 16.2 10.3 3.9 44 5.7 S 24 32 13 17 1023.3 1023.3 0.0
24/01:30pm 18.0 12.8 3.5 38 6.8 SSW 20 35 11 19 1023.1 1023.1 0.0
24/01:00pm 16.8 11.4 4.5 44 5.8 S 22 32 12 17 1023.3 1023.3 0.0
24/12:30pm 16.3 10.9 4.7 46 5.5 SSE 22 35 12 19 1023.4 1023.4 0.0
24/12:00pm 15.9 9.4 4.6 47 5.3 S 28 37 15 20 1023.7 1023.7 0.0
24/11:30am 15.8 9.3 4.5 47 5.3 SSW 28 35 15 19 1023.9 1023.9 0.0
24/11:00am 16.3 11.3 4.7 46 5.5 S 20 30 11 16 1024.2 1024.2 0.0
24/10:30am 16.3 10.7 5.3 48 5.3 S 24 35 13 19 1024.4 1024.4 0.0
24/10:00am 14.8 9.9 5.3 53 4.5 S 20 30 11 16 1024.6 1024.6 0.0
24/09:30am 15.3 10.4 5.0 50 4.9 SSE 20 33 11 18 1024.6 1024.6 0.0
24/09:00am 13.4 8.1 6.7 64 3.2 S 24 32 13 17 1024.6 1024.6 0.0
24/08:30am 14.4 10.1 7.9 65 3.3 S 20 32 11 17 1024.4 1024.4 0.0
24/08:00am 13.0 7.9 7.7 70 2.6 SSW 24 28 13 15 1024.2 1024.2 0.0
24/07:30am 12.5 7.9 8.0 74 2.2 SSW 22 30 12 16 1023.7 1023.7 0.0
24/07:00am 10.5 6.3 7.4 81 1.5 SW 19 24 10 13 1023.5 1023.5 0.0
24/06:30am 9.9 6.0 7.3 84 1.2 SW 17 19 9 10 1023.1 1023.1 0.0
24/06:00am 9.3 5.3 6.7 84 1.2 SW 17 19 9 10 1022.6 1022.6 0.0
24/05:30am 9.8 6.3 7.1 83 1.3 SW 15 17 8 9 1022.3 1022.3 0.0
24/05:00am 10.3 6.4 7.2 81 1.5 SW 17 19 9 10 1021.8 1021.8 0.0
24/04:30am 10.8 7.0 7.5 80 1.6 SSW 17 22 9 12 1021.2 1021.2 0.0
24/04:00am 11.5 7.8 7.8 78 1.8 SSW 17 20 9 11 1021.2 1021.2 0.0
24/03:30am 11.7 8.1 8.2 79 1.7 SSW 17 24 9 13 1020.7 1020.7 0.0
24/03:00am 11.4 8.2 8.3 81 1.5 SSW 15 20 8 11 1020.5 1020.5 0.0
24/02:30am 11.2 7.5 8.1 81 1.5 SSW 17 24 9 13 1020.3 1020.3 0.0
24/02:00am 11.3 6.2 7.8 79 1.7 SSW 24 30 13 16 1020.1 1020.1 0.0
24/01:30am 12.0 7.0 8.1 77 1.9 SSW 24 32 13 17 1020.0 1020.0 0.0
24/01:00am 12.0 8.1 8.7 80 1.6 SSW 19 24 10 13 1020.2 1020.2 0.0
24/12:30am 12.4 7.9 8.7 78 1.9 SSW 22 30 12 16 1020.1 1020.1 0.0
24/12:00am 12.9 6.6 8.8 76 2.1 SSW 32 39 17 21 1019.7 1019.7 0.0
 
Date/Time
WST
Temp
°C
App
Temp
°C
Dew
Point
°C
Rel
Hum
%
Delta-T
°C
Wind Press
QNH
hPa
Press
MSL
hPa
Rain since
9am
mm
Dir  Spd
km/h
Gust
km/h
Spd
kts
Gust
kts
23/11:30pm 13.5 7.8 9.7 78 2.0 SSW 30 39 16 21 1019.5 1019.5 0.0
23/11:00pm 13.7 7.4 9.6 76 2.1 SSW 33 44 18 24 1019.1 1019.0 0.0
23/10:30pm 14.2 6.7 9.6 74 2.4 SSW 39 50 21 27 1018.9 1018.8 0.0
23/10:00pm 14.6 8.6 10.0 74 2.4 SSW 32 50 17 27 1018.7 1018.6 0.0
23/09:30pm 14.8 8.2 10.0 73 2.5 SSW 35 50 19 27 1018.4 1018.3 0.0
23/09:00pm 15.2 7.0 9.8 70 2.8 SSW 43 54 23 29 1018.1 1018.0 0.0
23/08:30pm 16.5 8.9 7.7 56 4.5 SSW 37 54 20 29 1017.5 1017.5 0.0
23/08:20pm 17.1 9.7 4.8 44 5.9 SSW 33 50 18 27 1017.4 1017.4 0.0
23/08:00pm 18.5 11.6 2.8 35 7.3 SSE 28 37 15 20 1017.1 1017.1 0.0
23/07:30pm 21.0 14.5 -2.1 21 10.0 SSW 22 28 12 15 1016.1 1016.1 0.0
23/07:00pm 21.3 16.0 -4.0 18 10.5 SW 15 17 8 9 1016.3 1016.3 0.0
23/06:30pm 22.2 15.7 -5.6 15 11.3 SW 20 28 11 15 1015.4 1015.4 0.0
23/06:00pm 22.9 16.5 -6.9 13 11.9 SW 19 26 10 14 1015.1 1015.1 0.0
23/05:30pm 24.1 16.6 -8.2 11 12.7 W 24 32 13 17 1014.4 1014.4 0.0
23/05:00pm 24.7 18.5 -8.9 10 13.2 NW 17 20 9 11 1013.8 1013.7 0.0
23/04:30pm 26.2 17.5 -9.1 9 14.0 WNW 30 37 16 20 1013.5 1013.4 0.0
23/04:00pm 26.7 17.5 -8.8 9 14.2 WNW 33 41 18 22 1013.4 1013.3 0.0
23/03:30pm 27.4 18.7 -9.7 8 14.7 WNW 30 39 16 21 1013.3 1013.2 0.0
23/03:00pm 27.8 18.1 -9.4 8 14.9 WNW 35 50 19 27 1013.4 1013.3 0.0
23/02:30pm 27.8 18.5 -9.4 8 14.9 WNW 33 52 18 28 1013.4 1013.3 0.0
23/02:05pm 27.9 19.6 -9.4 8 14.9 NW 28 46 15 25 1013.6 1013.5 0.0
23/02:00pm 27.7 18.6 -9.5 8 14.8 WNW 32 46 17 25 1013.7 1013.6 0.0
23/01:30pm 27.7 18.6 -9.5 8 14.8 NW 32 43 17 23 1014.0 1014.0 0.0
23/01:00pm 27.6 18.3 -9.6 8 14.8 NW 33 52 18 28 1014.2 1014.2 0.0
23/12:55pm 27.4 18.1 -9.7 8 14.7 NW 33 52 18 28 1014.3 1014.3 0.0
23/12:30pm 26.9 17.9 -8.6 9 14.3 NW 32 44 17 24 1014.6 1014.6 0.0
23/12:00pm 26.5 17.3 -8.9 9 14.1 NW 33 50 18 27 1015.2 1015.2 0.0
23/11:30am 25.9 16.6 -9.4 9 13.9 NW 33 46 18 25 1015.7 1015.7 0.0
23/11:19am 25.9 16.2 -9.4 9 13.9 NW 35 54 19 29 1015.9 1015.9 0.0
23/11:00am 25.2 16.2 -8.5 10 13.3 NW 32 46 17 25 1016.3 1016.3 0.0
23/10:45am 25.2 16.1 -9.9 9 13.6 NNW 32 50 17 27 1016.6 1016.6 0.0
23/10:30am 24.5 15.4 -9.1 10 13.1 NW 32 41 17 22 1017.1 1017.1 0.0
23/10:00am 23.7 15.8 -8.5 11 12.5 NNW 26 33 14 18 1017.8 1017.8 0.0
23/09:30am 22.4 14.5 -8.4 12 11.9 NNW 26 35 14 19 1018.3 1018.2 0.0
23/09:00am 20.6 12.7 -8.7 13 11.0 NNW 26 32 14 17 1018.7 1018.6 0.0

Other formats

Comma delimited format used in spreadsheet applications
http://www.bom.gov.au/fwo/IDW60801/IDW60801.95646.axf

JavaScript Object Notation format (JSON) in row-major order
http://www.bom.gov.au/fwo/IDW60801/IDW60801.95646.json

Data quality

Most of these data are generated automatically and are frequently updated. Quality checks on data are not normally performed. It is possible for incorrect values to appear. Refer to information at About Latest Weather Observations and please check the disclaimer before using these data.